sensor_id;sensor_type;location;lat;lon;timestamp;temperature;humidity
52669;DHT22;59898;52.786;6.892;2023-06-22T00:00:04;19.80;99.90
52669;DHT22;59898;52.786;6.892;2023-06-22T00:03:32;19.80;99.90
52669;DHT22;59898;52.786;6.892;2023-06-22T00:06:52;19.90;99.90
52669;DHT22;59898;52.786;6.892;2023-06-22T00:10:13;19.80;99.90
52669;DHT22;59898;52.786;6.892;2023-06-22T00:13:33;19.80;99.90
52669;DHT22;59898;52.786;6.892;2023-06-22T00:16:54;19.80;99.90
52669;DHT22;59898;52.786;6.892;2023-06-22T00:20:17;19.70;99.90
52669;DHT22;59898;52.786;6.892;2023-06-22T00:23:38;19.80;99.90
52669;DHT22;59898;52.786;6.892;2023-06-22T00:26:59;19.80;99.90
52669;DHT22;59898;52.786;6.892;2023-06-22T00:30:19;19.80;99.90
52669;DHT22;59898;52.786;6.892;2023-06-22T00:33:40;19.80;99.90
52669;DHT22;59898;52.786;6.892;2023-06-22T00:37:00;19.80;99.90
52669;DHT22;59898;52.786;6.892;2023-06-22T00:40:21;19.90;99.90
52669;DHT22;59898;52.786;6.892;2023-06-22T00:43:42;19.90;99.90
52669;DHT22;59898;52.786;6.892;2023-06-22T00:47:03;19.90;99.90
52669;DHT22;59898;52.786;6.892;2023-06-22T00:50:27;19.80;99.90
52669;DHT22;59898;52.786;6.892;2023-06-22T00:53:48;19.80;99.90
52669;DHT22;59898;52.786;6.892;2023-06-22T00:57:09;19.70;99.90
52669;DHT22;59898;52.786;6.892;2023-06-22T01:00:32;19.60;99.90
52669;DHT22;59898;52.786;6.892;2023-06-22T01:03:53;19.60;99.90
52669;DHT22;59898;52.786;6.892;2023-06-22T01:10:50;19.60;99.90
52669;DHT22;59898;52.786;6.892;2023-06-22T01:14:20;19.60;99.90
52669;DHT22;59898;52.786;6.892;2023-06-22T01:17:44;19.60;99.90
52669;DHT22;59898;52.786;6.892;2023-06-22T01:21:06;19.50;99.90
52669;DHT22;59898;52.786;6.892;2023-06-22T01:28:20;19.60;99.90
52669;DHT22;59898;52.786;6.892;2023-06-22T01:31:43;19.60;99.90
52669;DHT22;59898;52.786;6.892;2023-06-22T01:35:07;19.70;99.90
52669;DHT22;59898;52.786;6.892;2023-06-22T01:38:29;19.70;99.90
52669;DHT22;59898;52.786;6.892;2023-06-22T01:41:50;19.70;99.90
52669;DHT22;59898;52.786;6.892;2023-06-22T01:45:11;19.80;99.90
52669;DHT22;59898;52.786;6.892;2023-06-22T01:48:32;19.80;99.90
52669;DHT22;59898;52.786;6.892;2023-06-22T01:51:53;19.80;99.90
52669;DHT22;59898;52.786;6.892;2023-06-22T01:55:14;19.70;99.90
52669;DHT22;59898;52.786;6.892;2023-06-22T01:58:37;19.70;99.90
52669;DHT22;59898;52.786;6.892;2023-06-22T02:02:07;19.70;99.90
52669;DHT22;59898;52.786;6.892;2023-06-22T02:05:33;19.70;99.90
52669;DHT22;59898;52.786;6.892;2023-06-22T02:08:59;19.70;99.90
52669;DHT22;59898;52.786;6.892;2023-06-22T02:12:23;19.60;99.90
52669;DHT22;59898;52.786;6.892;2023-06-22T02:15:45;19.40;99.90
52669;DHT22;59898;52.786;6.892;2023-06-22T02:19:07;19.40;99.90
52669;DHT22;59898;52.786;6.892;2023-06-22T02:22:28;19.20;99.90
52669;DHT22;59898;52.786;6.892;2023-06-22T02:25:49;19.20;99.90
52669;DHT22;59898;52.786;6.892;2023-06-22T02:29:09;19.10;99.90
52669;DHT22;59898;52.786;6.892;2023-06-22T02:32:30;19.00;99.90
52669;DHT22;59898;52.786;6.892;2023-06-22T02:35:50;19.10;99.90
52669;DHT22;59898;52.786;6.892;2023-06-22T02:39:11;19.00;99.90
52669;DHT22;59898;52.786;6.892;2023-06-22T02:42:31;19.00;99.90
52669;DHT22;59898;52.786;6.892;2023-06-22T02:45:52;18.90;99.90
52669;DHT22;59898;52.786;6.892;2023-06-22T02:49:13;19.00;99.90
52669;DHT22;59898;52.786;6.892;2023-06-22T02:52:33;19.00;99.90
52669;DHT22;59898;52.786;6.892;2023-06-22T02:55:55;19.00;99.90
52669;DHT22;59898;52.786;6.892;2023-06-22T02:59:16;19.10;99.90
52669;DHT22;59898;52.786;6.892;2023-06-22T03:02:36;19.00;99.90
52669;DHT22;59898;52.786;6.892;2023-06-22T03:05:57;19.00;99.90
52669;DHT22;59898;52.786;6.892;2023-06-22T03:09:17;19.00;99.90
52669;DHT22;59898;52.786;6.892;2023-06-22T03:12:39;19.00;99.90
52669;DHT22;59898;52.786;6.892;2023-06-22T03:15:59;19.00;99.90
52669;DHT22;59898;52.786;6.892;2023-06-22T03:19:20;19.00;99.90
52669;DHT22;59898;52.786;6.892;2023-06-22T03:22:42;18.90;99.90
52669;DHT22;59898;52.786;6.892;2023-06-22T03:26:04;18.80;99.90
52669;DHT22;59898;52.786;6.892;2023-06-22T03:29:24;18.70;99.90
52669;DHT22;59898;52.786;6.892;2023-06-22T03:32:45;18.70;99.90
52669;DHT22;59898;52.786;6.892;2023-06-22T03:36:07;18.60;99.90
52669;DHT22;59898;52.786;6.892;2023-06-22T03:39:27;18.60;99.90
52669;DHT22;59898;52.786;6.892;2023-06-22T03:42:48;18.60;99.90
52669;DHT22;59898;52.786;6.892;2023-06-22T03:46:08;18.60;99.90
52669;DHT22;59898;52.786;6.892;2023-06-22T03:49:29;18.70;99.90
52669;DHT22;59898;52.786;6.892;2023-06-22T03:52:50;18.60;99.90
52669;DHT22;59898;52.786;6.892;2023-06-22T03:56:12;18.60;99.90
52669;DHT22;59898;52.786;6.892;2023-06-22T03:59:33;18.60;99.90
52669;DHT22;59898;52.786;6.892;2023-06-22T04:02:54;18.60;99.90
52669;DHT22;59898;52.786;6.892;2023-06-22T04:06:15;18.60;99.90
52669;DHT22;59898;52.786;6.892;2023-06-22T04:09:35;18.70;99.90
52669;DHT22;59898;52.786;6.892;2023-06-22T04:12:56;18.70;99.90
52669;DHT22;59898;52.786;6.892;2023-06-22T04:16:16;18.80;99.90
52669;DHT22;59898;52.786;6.892;2023-06-22T04:19:37;18.70;99.90
52669;DHT22;59898;52.786;6.892;2023-06-22T04:22:58;18.70;99.90
52669;DHT22;59898;52.786;6.892;2023-06-22T04:26:18;18.60;99.90
52669;DHT22;59898;52.786;6.892;2023-06-22T04:29:41;18.70;99.90
52669;DHT22;59898;52.786;6.892;2023-06-22T04:33:09;18.80;99.90
52669;DHT22;59898;52.786;6.892;2023-06-22T04:36:29;18.90;99.90
52669;DHT22;59898;52.786;6.892;2023-06-22T04:39:51;18.80;99.90
52669;DHT22;59898;52.786;6.892;2023-06-22T04:43:12;18.80;99.90
52669;DHT22;59898;52.786;6.892;2023-06-22T04:46:32;18.70;99.90
52669;DHT22;59898;52.786;6.892;2023-06-22T04:49:54;18.60;99.90
52669;DHT22;59898;52.786;6.892;2023-06-22T04:53:14;18.60;99.90
52669;DHT22;59898;52.786;6.892;2023-06-22T04:56:35;18.60;99.90
52669;DHT22;59898;52.786;6.892;2023-06-22T04:59:56;18.70;99.90
52669;DHT22;59898;52.786;6.892;2023-06-22T05:03:16;18.60;99.90
52669;DHT22;59898;52.786;6.892;2023-06-22T05:06:38;18.60;99.90
52669;DHT22;59898;52.786;6.892;2023-06-22T05:10:01;18.60;99.90
52669;DHT22;59898;52.786;6.892;2023-06-22T05:13:21;18.60;99.90
52669;DHT22;59898;52.786;6.892;2023-06-22T05:16:43;18.70;99.90
52669;DHT22;59898;52.786;6.892;2023-06-22T05:20:04;18.90;99.90
52669;DHT22;59898;52.786;6.892;2023-06-22T05:23:26;18.90;99.90
52669;DHT22;59898;52.786;6.892;2023-06-22T05:26:47;18.90;99.90
52669;DHT22;59898;52.786;6.892;2023-06-22T05:30:08;18.90;99.90
52669;DHT22;59898;52.786;6.892;2023-06-22T05:33:29;18.90;99.90
52669;DHT22;59898;52.786;6.892;2023-06-22T05:36:49;18.90;99.90
52669;DHT22;59898;52.786;6.892;2023-06-22T05:40:10;18.90;99.90
52669;DHT22;59898;52.786;6.892;2023-06-22T05:43:31;19.00;99.90
52669;DHT22;59898;52.786;6.892;2023-06-22T05:46:52;19.00;99.90
52669;DHT22;59898;52.786;6.892;2023-06-22T05:50:12;19.10;99.90
52669;DHT22;59898;52.786;6.892;2023-06-22T05:53:33;19.10;99.90
52669;DHT22;59898;52.786;6.892;2023-06-22T05:56:53;19.20;99.90
52669;DHT22;59898;52.786;6.892;2023-06-22T06:00:14;19.30;99.90
52669;DHT22;59898;52.786;6.892;2023-06-22T06:03:35;19.40;99.90
52669;DHT22;59898;52.786;6.892;2023-06-22T06:07:01;19.40;99.90
52669;DHT22;59898;52.786;6.892;2023-06-22T06:10:22;19.50;99.90
52669;DHT22;59898;52.786;6.892;2023-06-22T06:13:42;19.50;99.90
52669;DHT22;59898;52.786;6.892;2023-06-22T06:17:03;19.60;99.90
52669;DHT22;59898;52.786;6.892;2023-06-22T06:20:25;19.70;99.90
52669;DHT22;59898;52.786;6.892;2023-06-22T06:23:46;19.80;99.90
52669;DHT22;59898;52.786;6.892;2023-06-22T06:27:07;19.90;99.90
52669;DHT22;59898;52.786;6.892;2023-06-22T06:30:28;20.00;99.90
52669;DHT22;59898;52.786;6.892;2023-06-22T06:33:49;20.10;99.90
52669;DHT22;59898;52.786;6.892;2023-06-22T06:37:09;20.30;99.90
52669;DHT22;59898;52.786;6.892;2023-06-22T06:40:30;20.40;99.90
52669;DHT22;59898;52.786;6.892;2023-06-22T06:43:51;20.50;99.90
52669;DHT22;59898;52.786;6.892;2023-06-22T06:47:12;20.70;99.90
52669;DHT22;59898;52.786;6.892;2023-06-22T06:50:32;20.90;99.90
52669;DHT22;59898;52.786;6.892;2023-06-22T06:53:53;21.00;99.90
52669;DHT22;59898;52.786;6.892;2023-06-22T06:57:14;21.10;99.90
52669;DHT22;59898;52.786;6.892;2023-06-22T07:00:35;21.10;99.90
52669;DHT22;59898;52.786;6.892;2023-06-22T07:03:57;21.00;99.90
52669;DHT22;59898;52.786;6.892;2023-06-22T07:07:17;21.10;99.90
52669;DHT22;59898;52.786;6.892;2023-06-22T07:10:38;21.10;99.90
52669;DHT22;59898;52.786;6.892;2023-06-22T07:13:58;21.20;99.90
52669;DHT22;59898;52.786;6.892;2023-06-22T07:17:21;21.30;99.90
52669;DHT22;59898;52.786;6.892;2023-06-22T07:20:41;21.40;99.90
52669;DHT22;59898;52.786;6.892;2023-06-22T07:24:02;21.50;99.90
52669;DHT22;59898;52.786;6.892;2023-06-22T07:27:22;21.60;99.90
52669;DHT22;59898;52.786;6.892;2023-06-22T07:30:43;21.60;99.90
52669;DHT22;59898;52.786;6.892;2023-06-22T07:34:04;21.80;99.90
52669;DHT22;59898;52.786;6.892;2023-06-22T07:37:24;21.90;99.90
52669;DHT22;59898;52.786;6.892;2023-06-22T07:40:47;22.00;99.90
52669;DHT22;59898;52.786;6.892;2023-06-22T07:44:08;22.10;99.90
52669;DHT22;59898;52.786;6.892;2023-06-22T07:47:29;22.10;99.90
52669;DHT22;59898;52.786;6.892;2023-06-22T07:50:49;22.20;99.90
52669;DHT22;59898;52.786;6.892;2023-06-22T07:54:10;22.40;99.90
52669;DHT22;59898;52.786;6.892;2023-06-22T07:57:30;22.50;99.90
52669;DHT22;59898;52.786;6.892;2023-06-22T08:00:54;22.60;99.90
52669;DHT22;59898;52.786;6.892;2023-06-22T08:04:15;22.70;99.90
52669;DHT22;59898;52.786;6.892;2023-06-22T08:07:35;22.90;99.90
52669;DHT22;59898;52.786;6.892;2023-06-22T08:10:58;23.00;99.90
52669;DHT22;59898;52.786;6.892;2023-06-22T08:14:18;23.20;99.90
52669;DHT22;59898;52.786;6.892;2023-06-22T08:17:39;23.20;99.90
52669;DHT22;59898;52.786;6.892;2023-06-22T08:21:00;23.30;99.90
52669;DHT22;59898;52.786;6.892;2023-06-22T08:24:20;23.30;99.90
52669;DHT22;59898;52.786;6.892;2023-06-22T08:27:45;23.50;99.90
52669;DHT22;59898;52.786;6.892;2023-06-22T08:31:06;23.60;99.90
52669;DHT22;59898;52.786;6.892;2023-06-22T08:34:26;23.70;99.90
52669;DHT22;59898;52.786;6.892;2023-06-22T08:37:48;23.80;99.90
52669;DHT22;59898;52.786;6.892;2023-06-22T08:41:12;24.00;99.90
52669;DHT22;59898;52.786;6.892;2023-06-22T08:44:33;24.10;99.90
52669;DHT22;59898;52.786;6.892;2023-06-22T08:47:53;24.30;99.90
52669;DHT22;59898;52.786;6.892;2023-06-22T08:51:14;24.40;99.90
52669;DHT22;59898;52.786;6.892;2023-06-22T08:54:34;24.50;99.90
52669;DHT22;59898;52.786;6.892;2023-06-22T08:57:55;24.60;99.90
52669;DHT22;59898;52.786;6.892;2023-06-22T09:01:16;24.50;99.90
52669;DHT22;59898;52.786;6.892;2023-06-22T09:04:36;24.70;99.90
52669;DHT22;59898;52.786;6.892;2023-06-22T09:07:57;24.90;99.90
52669;DHT22;59898;52.786;6.892;2023-06-22T09:11:18;25.00;99.90
52669;DHT22;59898;52.786;6.892;2023-06-22T09:14:39;25.20;99.90
52669;DHT22;59898;52.786;6.892;2023-06-22T09:18:00;25.20;99.90
52669;DHT22;59898;52.786;6.892;2023-06-22T09:21:21;25.30;99.90
52669;DHT22;59898;52.786;6.892;2023-06-22T09:24:41;25.50;99.90
52669;DHT22;59898;52.786;6.892;2023-06-22T09:28:02;25.50;99.90
52669;DHT22;59898;52.786;6.892;2023-06-22T09:31:22;25.60;99.90
52669;DHT22;59898;52.786;6.892;2023-06-22T09:34:45;25.70;99.90
52669;DHT22;59898;52.786;6.892;2023-06-22T09:38:06;25.80;99.90
52669;DHT22;59898;52.786;6.892;2023-06-22T09:41:26;25.80;99.90
52669;DHT22;59898;52.786;6.892;2023-06-22T09:44:47;26.00;99.90
52669;DHT22;59898;52.786;6.892;2023-06-22T09:48:08;26.10;99.90
52669;DHT22;59898;52.786;6.892;2023-06-22T09:51:30;26.20;99.90
52669;DHT22;59898;52.786;6.892;2023-06-22T09:54:50;26.10;99.90
52669;DHT22;59898;52.786;6.892;2023-06-22T09:58:11;26.20;99.90
52669;DHT22;59898;52.786;6.892;2023-06-22T10:01:31;26.30;99.90
52669;DHT22;59898;52.786;6.892;2023-06-22T10:04:52;26.60;99.90
52669;DHT22;59898;52.786;6.892;2023-06-22T10:08:12;26.70;99.90
52669;DHT22;59898;52.786;6.892;2023-06-22T10:11:33;26.70;99.90
52669;DHT22;59898;52.786;6.892;2023-06-22T10:14:55;26.50;99.90
52669;DHT22;59898;52.786;6.892;2023-06-22T10:18:16;26.50;99.90
52669;DHT22;59898;52.786;6.892;2023-06-22T10:21:37;26.50;99.90
52669;DHT22;59898;52.786;6.892;2023-06-22T10:24:57;26.60;99.90
52669;DHT22;59898;52.786;6.892;2023-06-22T10:28:18;26.80;99.90
52669;DHT22;59898;52.786;6.892;2023-06-22T10:31:38;26.90;99.90
52669;DHT22;59898;52.786;6.892;2023-06-22T10:34:59;26.90;99.90
52669;DHT22;59898;52.786;6.892;2023-06-22T10:38:19;27.10;99.90
52669;DHT22;59898;52.786;6.892;2023-06-22T10:41:40;27.10;99.90
52669;DHT22;59898;52.786;6.892;2023-06-22T10:45:00;27.40;99.90
52669;DHT22;59898;52.786;6.892;2023-06-22T10:48:21;27.40;99.90
52669;DHT22;59898;52.786;6.892;2023-06-22T10:51:41;27.60;99.90
52669;DHT22;59898;52.786;6.892;2023-06-22T10:55:02;27.60;99.60
52669;DHT22;59898;52.786;6.892;2023-06-22T10:58:23;27.60;99.50
52669;DHT22;59898;52.786;6.892;2023-06-22T11:01:43;27.60;99.50
52669;DHT22;59898;52.786;6.892;2023-06-22T11:05:04;27.70;99.50
52669;DHT22;59898;52.786;6.892;2023-06-22T11:08:25;27.70;99.10
52669;DHT22;59898;52.786;6.892;2023-06-22T11:11:49;27.70;99.30
52669;DHT22;59898;52.786;6.892;2023-06-22T11:15:10;27.70;99.30
52669;DHT22;59898;52.786;6.892;2023-06-22T11:18:31;27.90;98.80
52669;DHT22;59898;52.786;6.892;2023-06-22T11:21:54;27.90;98.80
52669;DHT22;59898;52.786;6.892;2023-06-22T11:25:14;27.90;98.70
52669;DHT22;59898;52.786;6.892;2023-06-22T11:28:35;27.80;98.40
52669;DHT22;59898;52.786;6.892;2023-06-22T11:31:55;27.60;98.30
52669;DHT22;59898;52.786;6.892;2023-06-22T11:35:16;27.50;98.40
52669;DHT22;59898;52.786;6.892;2023-06-22T11:38:36;27.30;98.40
52669;DHT22;59898;52.786;6.892;2023-06-22T11:42:02;27.30;98.80
52669;DHT22;59898;52.786;6.892;2023-06-22T11:45:22;27.30;98.50
52669;DHT22;59898;52.786;6.892;2023-06-22T11:48:43;27.30;98.30
52669;DHT22;59898;52.786;6.892;2023-06-22T11:52:05;27.30;98.40
52669;DHT22;59898;52.786;6.892;2023-06-22T11:55:25;27.20;98.50
52669;DHT22;59898;52.786;6.892;2023-06-22T11:58:46;27.10;98.50
52669;DHT22;59898;52.786;6.892;2023-06-22T12:02:06;27.10;98.50
52669;DHT22;59898;52.786;6.892;2023-06-22T12:05:29;27.10;98.30
52669;DHT22;59898;52.786;6.892;2023-06-22T12:08:50;27.10;98.20
52669;DHT22;59898;52.786;6.892;2023-06-22T12:12:10;27.10;98.10
52669;DHT22;59898;52.786;6.892;2023-06-22T12:15:31;27.20;98.10
52669;DHT22;59898;52.786;6.892;2023-06-22T12:18:51;27.20;98.00
52669;DHT22;59898;52.786;6.892;2023-06-22T12:22:12;27.20;98.10
52669;DHT22;59898;52.786;6.892;2023-06-22T12:25:33;27.20;98.00
52669;DHT22;59898;52.786;6.892;2023-06-22T12:28:53;27.20;98.00
52669;DHT22;59898;52.786;6.892;2023-06-22T12:32:14;27.20;97.90
52669;DHT22;59898;52.786;6.892;2023-06-22T12:35:35;27.20;97.90
52669;DHT22;59898;52.786;6.892;2023-06-22T12:38:55;27.20;97.90
52669;DHT22;59898;52.786;6.892;2023-06-22T12:42:16;27.00;97.80
52669;DHT22;59898;52.786;6.892;2023-06-22T12:45:37;27.00;97.80
52669;DHT22;59898;52.786;6.892;2023-06-22T12:48:57;26.90;97.70
52669;DHT22;59898;52.786;6.892;2023-06-22T12:52:18;26.80;97.60
52669;DHT22;59898;52.786;6.892;2023-06-22T12:55:38;26.70;97.60
52669;DHT22;59898;52.786;6.892;2023-06-22T12:58:59;26.50;97.80
52669;DHT22;59898;52.786;6.892;2023-06-22T13:02:22;26.40;98.10
52669;DHT22;59898;52.786;6.892;2023-06-22T13:05:43;26.40;98.20
52669;DHT22;59898;52.786;6.892;2023-06-22T13:09:03;26.30;98.30
52669;DHT22;59898;52.786;6.892;2023-06-22T13:12:25;26.30;98.40
52669;DHT22;59898;52.786;6.892;2023-06-22T13:15:46;26.20;98.40
52669;DHT22;59898;52.786;6.892;2023-06-22T13:19:06;26.20;98.50
52669;DHT22;59898;52.786;6.892;2023-06-22T13:22:34;26.20;98.70
52669;DHT22;59898;52.786;6.892;2023-06-22T13:26:00;26.20;98.70
52669;DHT22;59898;52.786;6.892;2023-06-22T13:29:20;26.20;98.60
52669;DHT22;59898;52.786;6.892;2023-06-22T13:32:42;26.10;98.50
52669;DHT22;59898;52.786;6.892;2023-06-22T13:36:02;26.00;98.60
52669;DHT22;59898;52.786;6.892;2023-06-22T13:39:23;25.90;98.70
52669;DHT22;59898;52.786;6.892;2023-06-22T13:42:44;25.90;98.70
52669;DHT22;59898;52.786;6.892;2023-06-22T13:46:05;25.90;98.80
52669;DHT22;59898;52.786;6.892;2023-06-22T13:49:26;25.80;98.80
52669;DHT22;59898;52.786;6.892;2023-06-22T13:52:46;25.90;99.00
52669;DHT22;59898;52.786;6.892;2023-06-22T13:56:07;25.90;99.00
52669;DHT22;59898;52.786;6.892;2023-06-22T13:59:27;25.90;99.00
52669;DHT22;59898;52.786;6.892;2023-06-22T14:02:48;25.80;98.90
52669;DHT22;59898;52.786;6.892;2023-06-22T14:06:09;25.80;99.00
52669;DHT22;59898;52.786;6.892;2023-06-22T14:09:31;25.80;99.30
52669;DHT22;59898;52.786;6.892;2023-06-22T14:12:52;25.70;99.50
52669;DHT22;59898;52.786;6.892;2023-06-22T14:16:13;25.70;99.70
52669;DHT22;59898;52.786;6.892;2023-06-22T14:19:34;25.80;99.90
52669;DHT22;59898;52.786;6.892;2023-06-22T14:22:54;25.80;99.90
52669;DHT22;59898;52.786;6.892;2023-06-22T14:26:16;25.80;99.90
52669;DHT22;59898;52.786;6.892;2023-06-22T14:29:39;25.70;99.90
52669;DHT22;59898;52.786;6.892;2023-06-22T14:33:00;25.70;99.90
52669;DHT22;59898;52.786;6.892;2023-06-22T14:36:20;25.80;99.90
52669;DHT22;59898;52.786;6.892;2023-06-22T14:39:41;25.70;99.90
52669;DHT22;59898;52.786;6.892;2023-06-22T14:43:02;25.70;99.90
52669;DHT22;59898;52.786;6.892;2023-06-22T14:46:23;25.70;99.90
52669;DHT22;59898;52.786;6.892;2023-06-22T14:49:43;25.70;99.90
52669;DHT22;59898;52.786;6.892;2023-06-22T14:53:04;25.90;99.90
52669;DHT22;59898;52.786;6.892;2023-06-22T14:56:24;25.80;99.90
52669;DHT22;59898;52.786;6.892;2023-06-22T14:59:48;25.80;99.90
52669;DHT22;59898;52.786;6.892;2023-06-22T15:03:09;25.80;99.90
52669;DHT22;59898;52.786;6.892;2023-06-22T15:06:37;25.70;99.90
52669;DHT22;59898;52.786;6.892;2023-06-22T15:09:57;25.60;99.90
52669;DHT22;59898;52.786;6.892;2023-06-22T15:13:18;25.60;99.90
52669;DHT22;59898;52.786;6.892;2023-06-22T15:16:39;25.50;99.90
52669;DHT22;59898;52.786;6.892;2023-06-22T15:19:59;25.60;99.90
52669;DHT22;59898;52.786;6.892;2023-06-22T15:23:20;25.60;99.90
52669;DHT22;59898;52.786;6.892;2023-06-22T15:26:41;25.50;99.90
52669;DHT22;59898;52.786;6.892;2023-06-22T15:30:02;25.30;99.90
52669;DHT22;59898;52.786;6.892;2023-06-22T15:33:24;25.20;99.90
52669;DHT22;59898;52.786;6.892;2023-06-22T15:36:45;25.20;99.90
52669;DHT22;59898;52.786;6.892;2023-06-22T15:40:06;25.10;99.90
52669;DHT22;59898;52.786;6.892;2023-06-22T15:43:27;25.10;99.90
52669;DHT22;59898;52.786;6.892;2023-06-22T15:46:48;25.00;99.90
52669;DHT22;59898;52.786;6.892;2023-06-22T15:50:09;25.00;99.90
52669;DHT22;59898;52.786;6.892;2023-06-22T15:53:30;24.80;99.90
52669;DHT22;59898;52.786;6.892;2023-06-22T15:56:50;24.60;99.90
52669;DHT22;59898;52.786;6.892;2023-06-22T16:00:12;24.50;99.90
52669;DHT22;59898;52.786;6.892;2023-06-22T16:03:34;24.30;99.90
52669;DHT22;59898;52.786;6.892;2023-06-22T16:06:55;24.10;99.90
52669;DHT22;59898;52.786;6.892;2023-06-22T16:10:15;23.90;99.90
52669;DHT22;59898;52.786;6.892;2023-06-22T16:13:38;23.80;99.90
52669;DHT22;59898;52.786;6.892;2023-06-22T16:16:59;23.70;99.90
52669;DHT22;59898;52.786;6.892;2023-06-22T16:20:20;23.60;99.90
52669;DHT22;59898;52.786;6.892;2023-06-22T16:23:41;23.50;99.90
52669;DHT22;59898;52.786;6.892;2023-06-22T16:27:02;23.50;99.90
52669;DHT22;59898;52.786;6.892;2023-06-22T16:30:23;23.40;99.90
52669;DHT22;59898;52.786;6.892;2023-06-22T16:33:44;23.30;99.90
52669;DHT22;59898;52.786;6.892;2023-06-22T16:37:08;23.20;99.90
52669;DHT22;59898;52.786;6.892;2023-06-22T16:40:28;23.20;99.90
52669;DHT22;59898;52.786;6.892;2023-06-22T16:43:49;23.10;99.90
52669;DHT22;59898;52.786;6.892;2023-06-22T16:47:10;23.10;99.90
52669;DHT22;59898;52.786;6.892;2023-06-22T16:50:30;23.10;99.90
52669;DHT22;59898;52.786;6.892;2023-06-22T16:53:54;23.10;99.90
52669;DHT22;59898;52.786;6.892;2023-06-22T16:57:18;23.20;99.90
52669;DHT22;59898;52.786;6.892;2023-06-22T17:00:40;23.10;99.90
52669;DHT22;59898;52.786;6.892;2023-06-22T17:04:04;23.00;99.90
52669;DHT22;59898;52.786;6.892;2023-06-22T17:07:27;22.90;99.90
52669;DHT22;59898;52.786;6.892;2023-06-22T17:10:49;22.90;99.90
52669;DHT22;59898;52.786;6.892;2023-06-22T17:14:10;22.90;99.90
52669;DHT22;59898;52.786;6.892;2023-06-22T17:17:32;22.80;99.90
52669;DHT22;59898;52.786;6.892;2023-06-22T17:20:53;22.80;99.90
52669;DHT22;59898;52.786;6.892;2023-06-22T17:24:17;22.70;99.90
52669;DHT22;59898;52.786;6.892;2023-06-22T17:27:39;22.60;99.90
52669;DHT22;59898;52.786;6.892;2023-06-22T17:31:09;22.60;99.90
52669;DHT22;59898;52.786;6.892;2023-06-22T17:34:31;22.50;99.90
52669;DHT22;59898;52.786;6.892;2023-06-22T17:37:56;22.50;99.90
52669;DHT22;59898;52.786;6.892;2023-06-22T17:41:17;22.50;99.90
52669;DHT22;59898;52.786;6.892;2023-06-22T17:44:38;22.50;99.90
52669;DHT22;59898;52.786;6.892;2023-06-22T17:47:58;22.50;99.90
52669;DHT22;59898;52.786;6.892;2023-06-22T17:51:19;22.40;99.90
52669;DHT22;59898;52.786;6.892;2023-06-22T17:54:40;22.40;99.90
52669;DHT22;59898;52.786;6.892;2023-06-22T17:58:00;22.30;99.90
52669;DHT22;59898;52.786;6.892;2023-06-22T18:01:34;22.30;99.90
52669;DHT22;59898;52.786;6.892;2023-06-22T18:04:58;22.20;99.90
52669;DHT22;59898;52.786;6.892;2023-06-22T18:08:25;22.20;99.90
52669;DHT22;59898;52.786;6.892;2023-06-22T18:11:48;22.20;99.90
52669;DHT22;59898;52.786;6.892;2023-06-22T18:15:09;22.10;99.90
52669;DHT22;59898;52.786;6.892;2023-06-22T18:18:31;22.10;99.90
52669;DHT22;59898;52.786;6.892;2023-06-22T18:21:53;22.00;99.90
52669;DHT22;59898;52.786;6.892;2023-06-22T18:25:14;22.00;99.90
52669;DHT22;59898;52.786;6.892;2023-06-22T18:28:39;21.90;99.90
52669;DHT22;59898;52.786;6.892;2023-06-22T18:32:00;21.90;99.90
52669;DHT22;59898;52.786;6.892;2023-06-22T18:35:21;21.80;99.90
52669;DHT22;59898;52.786;6.892;2023-06-22T18:38:43;21.80;99.90
52669;DHT22;59898;52.786;6.892;2023-06-22T18:42:09;21.80;99.90
52669;DHT22;59898;52.786;6.892;2023-06-22T18:45:30;21.70;99.90
52669;DHT22;59898;52.786;6.892;2023-06-22T18:48:53;21.70;99.90
52669;DHT22;59898;52.786;6.892;2023-06-22T18:52:17;21.60;99.90
52669;DHT22;59898;52.786;6.892;2023-06-22T18:55:46;21.50;99.90
52669;DHT22;59898;52.786;6.892;2023-06-22T18:59:11;21.40;99.90
52669;DHT22;59898;52.786;6.892;2023-06-22T19:02:40;21.30;99.90
52669;DHT22;59898;52.786;6.892;2023-06-22T19:06:01;21.20;99.90
52669;DHT22;59898;52.786;6.892;2023-06-22T19:09:21;21.00;99.90
52669;DHT22;59898;52.786;6.892;2023-06-22T19:12:43;20.90;99.90
52669;DHT22;59898;52.786;6.892;2023-06-22T19:16:07;20.80;99.90
52669;DHT22;59898;52.786;6.892;2023-06-22T19:19:34;20.70;99.90
52669;DHT22;59898;52.786;6.892;2023-06-22T19:22:56;20.70;99.90
52669;DHT22;59898;52.786;6.892;2023-06-22T19:26:18;20.50;99.90
52669;DHT22;59898;52.786;6.892;2023-06-22T19:29:39;20.50;99.90
52669;DHT22;59898;52.786;6.892;2023-06-22T19:33:00;20.50;99.90
52669;DHT22;59898;52.786;6.892;2023-06-22T19:36:23;20.40;99.90
52669;DHT22;59898;52.786;6.892;2023-06-22T19:39:44;20.20;99.90
52669;DHT22;59898;52.786;6.892;2023-06-22T19:43:06;20.10;99.90
52669;DHT22;59898;52.786;6.892;2023-06-22T19:46:31;20.00;99.90
52669;DHT22;59898;52.786;6.892;2023-06-22T19:49:59;19.80;99.90
52669;DHT22;59898;52.786;6.892;2023-06-22T19:53:20;19.70;99.90
52669;DHT22;59898;52.786;6.892;2023-06-22T19:56:40;19.60;99.90
52669;DHT22;59898;52.786;6.892;2023-06-22T20:00:02;19.40;99.90
52669;DHT22;59898;52.786;6.892;2023-06-22T20:03:38;19.20;99.90
52669;DHT22;59898;52.786;6.892;2023-06-22T20:07:05;19.10;99.90
52669;DHT22;59898;52.786;6.892;2023-06-22T20:10:26;18.90;99.90
52669;DHT22;59898;52.786;6.892;2023-06-22T20:13:49;18.70;99.90
52669;DHT22;59898;52.786;6.892;2023-06-22T20:17:14;18.60;99.90
52669;DHT22;59898;52.786;6.892;2023-06-22T20:20:36;18.40;99.90
52669;DHT22;59898;52.786;6.892;2023-06-22T20:24:04;18.40;99.90
52669;DHT22;59898;52.786;6.892;2023-06-22T20:27:25;18.40;99.90
52669;DHT22;59898;52.786;6.892;2023-06-22T20:34:23;18.80;99.90
52669;DHT22;59898;52.786;6.892;2023-06-22T20:37:44;18.90;99.90
52669;DHT22;59898;52.786;6.892;2023-06-22T20:41:04;19.10;99.90
52669;DHT22;59898;52.786;6.892;2023-06-22T20:44:28;19.20;99.90
52669;DHT22;59898;52.786;6.892;2023-06-22T20:47:48;19.20;99.90
52669;DHT22;59898;52.786;6.892;2023-06-22T20:51:09;19.30;99.90
52669;DHT22;59898;52.786;6.892;2023-06-22T20:54:29;19.30;99.90
52669;DHT22;59898;52.786;6.892;2023-06-22T20:57:54;19.40;99.90
52669;DHT22;59898;52.786;6.892;2023-06-22T21:01:17;19.40;99.90
52669;DHT22;59898;52.786;6.892;2023-06-22T21:04:38;19.50;99.90
52669;DHT22;59898;52.786;6.892;2023-06-22T21:07:59;19.40;99.90
52669;DHT22;59898;52.786;6.892;2023-06-22T21:11:20;19.30;99.90
52669;DHT22;59898;52.786;6.892;2023-06-22T21:14:41;19.30;99.90
52669;DHT22;59898;52.786;6.892;2023-06-22T21:18:01;19.30;99.90
52669;DHT22;59898;52.786;6.892;2023-06-22T21:21:22;19.30;99.90